Time;durP1;ratioP1;P1;durP2;ratioP2;P2;SDS_P1;SDS_P2;PMS_P1;PMS_P2;Temp;Humidity;BMP_temperature;BMP_pressure;BME280_temperature;BME280_humidity;BME280_pressure;Samples;Min_cycle;Max_cycle;Signal;HPM_P1;HPM_P2
2022/03/06 00:01:44;;;;;;;11.55;7.75;;;;;;;-0.12;61.81;102636.84;4940455;28;20385;-49
2022/03/06 00:04:10;;;;;;;10.80;6.85;;;;;;;-0.12;62.31;102628.94;4939664;29;20020;-48
2022/03/06 00:06:37;;;;;;;12.02;6.70;;;;;;;-0.13;61.92;102638.66;4943612;29;20035;-48
2022/03/06 00:09:02;;;;;;;11.95;7.32;;;;;;;-0.12;62.10;102629.78;4938422;28;20067;-48
2022/03/06 00:11:28;;;;;;;10.98;6.53;;;;;;;-0.10;61.85;102630.47;4941199;28;20031;-50
2022/03/06 00:13:54;;;;;;;14.02;7.47;;;;;;;-0.08;62.27;102639.06;4943645;28;20057;-48
2022/03/06 00:16:19;;;;;;;14.63;7.28;;;;;;;-0.09;62.51;102634.78;4944145;29;20405;-49
2022/03/06 00:18:45;;;;;;;12.48;7.00;;;;;;;-0.09;62.44;102626.03;4945119;28;20485;-48
2022/03/06 00:21:13;;;;;;;13.88;7.68;;;;;;;-0.06;62.22;102634.50;4948150;28;20110;-48
2022/03/06 00:23:38;;;;;;;15.85;7.53;;;;;;;-0.04;62.41;102632.56;4946061;28;20071;-50
2022/03/06 00:26:04;;;;;;;13.40;7.20;;;;;;;-0.08;62.53;102625.06;4946346;28;20031;-49
2022/03/06 00:28:30;;;;;;;12.57;6.38;;;;;;;-0.07;62.02;102627.56;4946664;28;20054;-48
2022/03/06 00:30:55;;;;;;;13.00;6.85;;;;;;;-0.03;61.92;102626.34;4943776;29;20046;-48
2022/03/06 00:33:21;;;;;;;11.50;6.72;;;;;;;0.02;62.32;102631.22;4945606;28;20033;-49
2022/03/06 00:35:46;;;;;;;9.57;6.05;;;;;;;0.05;62.16;102627.50;4945387;28;20123;-47
2022/03/06 00:38:12;;;;;;;10.50;6.03;;;;;;;0.07;62.21;102622.91;4944032;28;20024;-48
2022/03/06 00:40:38;;;;;;;11.90;6.18;;;;;;;0.05;62.31;102628.31;4941551;28;20034;-48
2022/03/06 00:43:03;;;;;;;15.05;6.38;;;;;;;0.08;61.95;102629.84;4942818;28;20113;-48
2022/03/06 00:45:29;;;;;;;15.65;6.13;;;;;;;0.09;62.48;102627.06;4946636;28;21505;-48
2022/03/06 00:47:54;;;;;;;12.73;5.45;;;;;;;0.12;62.17;102634.72;4944837;28;20039;-49
2022/03/06 00:50:20;;;;;;;14.80;5.90;;;;;;;0.14;62.48;102632.78;4944314;29;20041;-48
2022/03/06 00:52:45;;;;;;;11.05;5.65;;;;;;;0.18;62.29;102630.69;4939907;28;20035;-48
2022/03/06 00:55:11;;;;;;;16.35;6.93;;;;;;;0.18;62.28;102635.97;4942792;29;20058;-48
2022/03/06 00:57:37;;;;;;;9.30;5.55;;;;;;;0.16;62.17;102628.19;4942808;29;20035;-48
2022/03/06 01:00:05;;;;;;;8.52;5.70;;;;;;;0.20;62.68;102629.63;4944254;28;20031;-49
2022/03/06 01:02:31;;;;;;;10.50;5.38;;;;;;;0.22;62.17;102627.69;4941427;28;20027;-47
2022/03/06 01:04:56;;;;;;;12.18;6.18;;;;;;;0.22;62.59;102625.06;4942314;28;20120;-50
2022/03/06 01:07:21;;;;;;;12.05;6.82;;;;;;;0.25;62.34;102621.31;4942978;28;20101;-48
2022/03/06 01:09:47;;;;;;;9.90;5.55;;;;;;;0.27;62.62;102628.09;4942053;28;20031;-48
2022/03/06 01:12:13;;;;;;;10.65;5.95;;;;;;;0.26;62.91;102623.81;4945812;28;20031;-48
2022/03/06 01:14:39;;;;;;;12.27;5.63;;;;;;;0.28;63.11;102623.66;4942299;28;20042;-48
2022/03/06 01:17:05;;;;;;;11.98;6.10;;;;;;;0.30;62.83;102622.56;4942111;28;20035;-48
2022/03/06 01:19:30;;;;;;;9.43;5.30;;;;;;;0.31;62.78;102626.03;4944128;29;20332;-48
2022/03/06 01:21:56;;;;;;;9.30;6.28;;;;;;;0.33;62.87;102623.25;4945637;28;20799;-47
2022/03/06 01:24:22;;;;;;;7.93;5.45;;;;;;;0.32;63.08;102617.16;4943956;28;20058;-49
2022/03/06 01:26:47;;;;;;;10.82;5.93;;;;;;;0.32;62.89;102621.59;4946098;29;20477;-48
2022/03/06 01:29:13;;;;;;;12.40;5.70;;;;;;;0.32;63.05;102621.59;4943680;28;20052;-48
2022/03/06 01:31:39;;;;;;;11.55;4.93;;;;;;;0.33;63.09;102624.09;4942973;28;20798;-48
2022/03/06 01:34:05;;;;;;;9.35;5.10;;;;;;;0.34;63.04;102620.47;4941560;29;20035;-48
2022/03/06 01:36:31;;;;;;;9.35;6.20;;;;;;;0.33;62.99;102620.63;4939714;29;20474;-47
2022/03/06 01:38:57;;;;;;;9.82;5.25;;;;;;;0.29;63.63;102623.53;4943488;29;20042;-50
2022/03/06 01:41:23;;;;;;;12.52;6.35;;;;;;;0.25;63.84;102624.78;4943720;29;20031;-49
2022/03/06 01:43:49;;;;;;;9.98;5.60;;;;;;;0.22;64.06;102625.06;4942311;28;20027;-51
2022/03/06 01:46:14;;;;;;;11.68;5.80;;;;;;;0.17;64.02;102629.03;4942571;28;20422;-48
2022/03/06 01:48:40;;;;;;;9.85;5.30;;;;;;;0.14;64.25;102624.88;4941874;28;20031;-50
2022/03/06 01:51:06;;;;;;;9.38;5.68;;;;;;;0.11;64.32;102619.88;4944280;29;20023;-51
2022/03/06 01:53:31;;;;;;;10.07;5.57;;;;;;;0.10;64.26;102618.19;4942138;28;20035;-52
2022/03/06 01:55:57;;;;;;;7.90;4.88;;;;;;;0.11;64.20;102621.66;4943329;29;20067;-48
2022/03/06 01:58:22;;;;;;;10.02;5.25;;;;;;;0.13;64.52;102620.56;4941013;29;20027;-48
2022/03/06 02:00:49;;;;;;;8.55;5.47;;;;;;;0.15;64.11;102616.00;4944042;29;20492;-49
2022/03/06 02:03:17;;;;;;;12.02;5.25;;;;;;;0.15;64.50;102620.44;4939475;28;21768;-48
2022/03/06 02:05:43;;;;;;;11.40;6.03;;;;;;;0.15;64.54;102610.72;4943626;29;20027;-48
2022/03/06 02:08:09;;;;;;;8.73;4.78;;;;;;;0.19;64.24;102609.50;4944917;28;20398;-49
2022/03/06 02:10:35;;;;;;;10.23;5.30;;;;;;;0.22;64.10;102611.88;4943830;29;20062;-50
2022/03/06 02:13:01;;;;;;;8.40;4.93;;;;;;;0.23;64.57;102612.69;4939904;28;20039;-48
2022/03/06 02:15:27;;;;;;;13.45;5.88;;;;;;;0.22;64.81;102606.59;4939366;29;20054;-49
2022/03/06 02:17:53;;;;;;;6.88;4.78;;;;;;;0.23;64.23;102605.63;4942740;28;20031;-49
2022/03/06 02:20:21;;;;;;;12.32;5.18;;;;;;;0.25;64.65;102605.50;4943926;29;20082;-48
2022/03/06 02:22:55;;;;;;;9.52;5.28;;;;;;;0.24;64.42;102609.94;4944253;29;20037;-48
2022/03/06 02:25:24;;;;;;;10.63;4.80;;;;;;;0.27;64.78;102603.53;4940822;28;20027;-48
2022/03/06 02:27:54;;;;;;;9.32;5.20;;;;;;;0.26;64.53;102600.06;4945541;28;20051;-48
2022/03/06 02:30:23;;;;;;;9.40;4.75;;;;;;;0.26;64.46;102599.25;4941703;28;20106;-49
2022/03/06 02:32:50;;;;;;;8.70;4.90;;;;;;;0.27;64.84;102599.09;4938523;28;20113;-48
2022/03/06 02:35:16;;;;;;;9.38;4.88;;;;;;;0.31;64.69;102589.13;4941020;28;20027;-48
2022/03/06 02:37:42;;;;;;;7.30;4.70;;;;;;;0.34;64.20;102590.66;4944307;28;20045;-47
2022/03/06 02:40:09;;;;;;;8.18;4.60;;;;;;;0.35;64.62;102587.03;4943019;28;20416;-48
2022/03/06 02:42:38;;;;;;;7.28;4.45;;;;;;;0.37;64.35;102590.41;4943693;28;20030;-47
2022/03/06 02:45:13;;;;;;;9.45;4.30;;;;;;;0.33;64.90;102589.81;4941783;28;20027;-49
2022/03/06 02:47:39;;;;;;;12.82;4.85;;;;;;;0.38;64.48;102595.53;4941261;28;20039;-47
2022/03/06 02:50:07;;;;;;;9.10;4.28;;;;;;;0.40;64.64;102587.47;4942675;29;20035;-48
2022/03/06 02:52:33;;;;;;;5.57;4.28;;;;;;;0.41;64.95;102589.16;4943642;29;20107;-48
2022/03/06 02:54:59;;;;;;;8.70;4.60;;;;;;;0.41;64.88;102584.72;4944482;29;20043;-48
2022/03/06 02:57:24;;;;;;;8.13;4.10;;;;;;;0.43;65.04;102581.94;4937360;28;20500;-47
2022/03/06 02:59:50;;;;;;;9.10;4.80;;;;;;;0.40;65.11;102583.03;4942230;28;20029;-47
2022/03/06 03:02:16;;;;;;;6.43;4.25;;;;;;;0.39;65.27;102584.00;4942039;29;20055;-48
2022/03/06 03:04:41;;;;;;;6.63;3.67;;;;;;;0.38;65.45;102586.78;4942467;28;20038;-48
2022/03/06 03:07:10;;;;;;;6.70;4.35;;;;;;;0.41;64.86;102583.88;4941646;29;20093;-47
2022/03/06 03:09:36;;;;;;;6.07;3.90;;;;;;;0.44;64.90;102583.59;4944091;29;20106;-47
2022/03/06 03:12:02;;;;;;;10.95;4.28;;;;;;;0.44;64.96;102584.44;4944456;28;20119;-49
2022/03/06 03:14:31;;;;;;;8.20;3.60;;;;;;;0.45;65.21;102585.25;4944955;29;20497;-51
2022/03/06 03:17:00;;;;;;;11.15;4.47;;;;;;;0.45;65.38;102578.19;4936367;28;20179;-51
2022/03/06 03:19:26;;;;;;;9.13;4.00;;;;;;;0.47;65.29;102580.69;4940362;29;20384;-51
2022/03/06 03:21:52;;;;;;;7.05;4.38;;;;;;;0.47;65.31;102578.88;4940849;29;20027;-51
2022/03/06 03:24:18;;;;;;;5.85;3.78;;;;;;;0.47;65.52;102575.41;4942983;29;20135;-52
2022/03/06 03:26:43;;;;;;;9.65;4.32;;;;;;;0.46;65.57;102576.38;4940879;29;20106;-49
2022/03/06 03:29:09;;;;;;;6.88;3.90;;;;;;;0.46;65.36;102573.75;4942609;28;20027;-49
2022/03/06 03:31:34;;;;;;;12.20;4.22;;;;;;;0.46;65.54;102577.22;4942286;28;20410;-54
2022/03/06 03:34:00;;;;;;;9.80;3.70;;;;;;;0.47;65.44;102588.59;4940463;28;20067;-50
2022/03/06 03:36:26;;;;;;;7.47;3.25;;;;;;;0.46;65.56;102587.75;4940260;29;20414;-50
2022/03/06 03:38:51;;;;;;;8.73;3.40;;;;;;;0.47;65.44;102588.59;4944028;28;20038;-50
2022/03/06 03:41:17;;;;;;;7.53;3.60;;;;;;;0.48;64.97;102588.47;4942594;29;20457;-50
2022/03/06 03:43:42;;;;;;;7.72;3.88;;;;;;;0.49;65.65;102587.47;4943493;28;20023;-53
2022/03/06 03:46:08;;;;;;;8.02;3.38;;;;;;;0.48;65.36;102585.81;4942890;28;20058;-51
2022/03/06 03:48:34;;;;;;;8.23;3.80;;;;;;;0.50;65.52;102588.31;4941117;29;20031;-50
2022/03/06 03:50:59;;;;;;;6.75;3.47;;;;;;;0.48;65.53;102588.47;4942270;28;20046;-54
2022/03/06 03:53:25;;;;;;;8.18;3.47;;;;;;;0.50;65.39;102594.41;4940537;28;20027;-51
2022/03/06 03:55:52;;;;;;;6.25;3.40;;;;;;;0.51;65.54;102595.25;4941659;28;20024;-51
2022/03/06 03:58:19;;;;;;;7.30;3.28;;;;;;;0.52;65.16;102589.00;4942672;28;20373;-54
2022/03/06 04:00:54;;;;;;;7.18;3.60;;;;;;;0.52;65.53;102594.28;4941300;28;20035;-50
2022/03/06 04:03:20;;;;;;;5.13;3.38;;;;;;;0.52;65.00;102594.28;4939770;28;20027;-48
2022/03/06 04:05:46;;;;;;;7.68;4.00;;;;;;;0.51;64.92;102596.09;4941390;28;20027;-50
2022/03/06 04:08:11;;;;;;;6.30;3.47;;;;;;;0.52;65.53;102589.00;4940535;29;20066;-53
2022/03/06 04:10:37;;;;;;;9.02;3.45;;;;;;;0.51;65.18;102588.16;4943248;28;20374;-49
2022/03/06 04:13:03;;;;;;;9.00;3.55;;;;;;;0.51;65.27;102588.16;4942179;28;20135;-49
2022/03/06 04:15:28;;;;;;;6.53;3.30;;;;;;;0.51;65.68;102593.44;4943045;28;20030;-53
2022/03/06 04:17:54;;;;;;;4.22;3.00;;;;;;;0.51;65.34;102587.34;4939916;28;20054;-53
2022/03/06 04:20:19;;;;;;;7.80;3.20;;;;;;;0.50;65.46;102589.16;4943660;29;20397;-51
2022/03/06 04:22:45;;;;;;;8.07;3.10;;;;;;;0.50;65.31;102589.16;4942149;29;20380;-51
2022/03/06 04:25:11;;;;;;;5.15;2.92;;;;;;;0.51;65.44;102589.97;4943652;28;20019;-50
2022/03/06 04:27:36;;;;;;;4.63;2.85;;;;;;;0.52;65.42;102587.19;4941536;29;20106;-51
2022/03/06 04:30:03;;;;;;;4.80;2.58;;;;;;;0.53;65.26;102588.03;4939363;28;20445;-50
2022/03/06 04:32:28;;;;;;;5.05;2.80;;;;;;;0.52;65.65;102587.19;4939445;29;20023;-53
2022/03/06 04:34:54;;;;;;;6.72;2.80;;;;;;;0.52;65.29;102591.66;4939617;29;20031;-50
2022/03/06 04:37:19;;;;;;;7.43;3.10;;;;;;;0.53;65.02;102586.22;4943315;28;20023;-51
2022/03/06 04:39:45;;;;;;;8.60;3.40;;;;;;;0.55;65.05;102592.22;4941124;28;20042;-49
2022/03/06 04:42:10;;;;;;;5.40;2.90;;;;;;;0.56;65.13;102588.63;4938764;28;20046;-51
2022/03/06 04:44:36;;;;;;;5.63;2.65;;;;;;;0.55;65.17;102583.47;4943149;29;20023;-50
2022/03/06 04:47:02;;;;;;;4.70;2.60;;;;;;;0.55;65.19;102583.47;4939152;28;20046;-51
2022/03/06 04:49:27;;;;;;;6.55;2.80;;;;;;;0.56;64.92;102587.78;4938816;28;20329;-53
2022/03/06 04:51:53;;;;;;;7.70;3.03;;;;;;;0.56;64.73;102587.78;4938455;28;20421;-49
2022/03/06 04:54:20;;;;;;;3.55;2.17;;;;;;;0.56;64.95;102593.91;4940953;28;20108;-51
2022/03/06 04:56:46;;;;;;;2.95;2.20;;;;;;;0.56;64.79;102587.78;4938407;29;20118;-49
2022/03/06 04:59:12;;;;;;;5.55;2.63;;;;;;;0.58;64.92;102599.03;4939019;28;20042;-51
2022/03/06 05:01:38;;;;;;;3.03;2.55;;;;;;;0.57;64.94;102584.19;4938931;28;20020;-52
2022/03/06 05:04:03;;;;;;;4.53;2.72;;;;;;;0.56;64.91;102593.06;4942258;29;20047;-49
2022/03/06 05:06:29;;;;;;;6.20;2.47;;;;;;;0.53;64.61;102588.88;4945111;28;20042;-56
2022/03/06 05:08:54;;;;;;;7.95;2.88;;;;;;;0.55;64.60;102586.13;4943244;29;20039;-52
2022/03/06 05:11:20;;;;;;;4.75;2.47;;;;;;;0.56;65.10;102593.06;4943309;28;20031;-48
2022/03/06 05:13:46;;;;;;;3.40;2.60;;;;;;;0.57;65.04;102594.72;4940242;28;20032;-52
2022/03/06 05:16:12;;;;;;;7.43;2.72;;;;;;;0.58;64.40;102597.22;4940944;28;20023;-50
2022/03/06 05:18:37;;;;;;;6.05;2.97;;;;;;;0.57;64.61;102587.66;4942199;28;20102;-49
2022/03/06 05:21:03;;;;;;;5.85;2.97;;;;;;;0.58;64.86;102596.41;4940580;29;20055;-52
2022/03/06 05:23:29;;;;;;;3.70;2.45;;;;;;;0.56;64.43;102593.91;4944622;29;20042;-51
2022/03/06 05:25:54;;;;;;;3.13;2.10;;;;;;;0.55;64.43;102594.03;4944473;29;20023;-49
2022/03/06 05:28:20;;;;;;;5.78;3.15;;;;;;;0.54;64.63;102589.72;4941378;28;20102;-51
2022/03/06 05:30:46;;;;;;;6.47;2.63;;;;;;;0.47;64.67;102580.69;4942599;28;20027;-50
2022/03/06 05:33:11;;;;;;;5.15;3.25;;;;;;;0.46;64.09;102584.28;4943284;28;20599;-50
2022/03/06 05:35:37;;;;;;;6.43;2.97;;;;;;;0.44;64.36;102581.78;4945275;28;20042;-53
2022/03/06 05:38:03;;;;;;;5.40;3.30;;;;;;;0.42;64.38;102588.19;4948119;29;20039;-48
2022/03/06 05:40:28;;;;;;;6.40;3.40;;;;;;;0.40;64.24;102584.84;4945028;28;20481;-53
2022/03/06 05:42:54;;;;;;;6.28;2.97;;;;;;;0.39;64.23;102581.38;4946372;29;20171;-53
2022/03/06 05:45:20;;;;;;;5.93;2.92;;;;;;;0.39;64.20;102584.00;4946031;29;20108;-50
2022/03/06 05:47:45;;;;;;;8.40;3.45;;;;;;;0.41;64.24;102586.50;4941611;29;20039;-50
2022/03/06 05:50:11;;;;;;;5.93;3.30;;;;;;;0.41;64.54;102584.72;4943776;28;20038;-51
2022/03/06 05:52:37;;;;;;;5.28;3.17;;;;;;;0.42;64.25;102590.81;4944151;28;20159;-50
2022/03/06 05:55:03;;;;;;;6.32;3.45;;;;;;;0.44;64.08;102588.88;4945361;28;20073;-52
2022/03/06 05:57:29;;;;;;;5.55;2.95;;;;;;;0.46;64.39;102590.41;4940331;28;20632;-50
2022/03/06 05:59:55;;;;;;;4.88;3.38;;;;;;;0.48;64.02;102592.91;4942939;29;20065;-53
2022/03/06 06:02:21;;;;;;;6.32;3.13;;;;;;;0.50;64.31;102588.31;4944576;28;20055;-53
2022/03/06 06:04:48;;;;;;;6.25;3.25;;;;;;;0.53;63.97;102594.16;4945722;29;20032;-51
2022/03/06 06:07:14;;;;;;;5.55;3.53;;;;;;;0.53;63.81;102588.03;4944587;28;20034;-51
2022/03/06 06:09:39;;;;;;;6.10;3.92;;;;;;;0.54;64.09;102592.38;4939387;28;20287;-54
2022/03/06 06:12:06;;;;;;;4.32;3.40;;;;;;;0.55;63.89;102586.13;4944157;29;20027;-53
2022/03/06 06:14:31;;;;;;;5.00;3.42;;;;;;;0.57;63.51;102587.66;4942601;28;20067;-52
2022/03/06 06:16:57;;;;;;;6.15;3.47;;;;;;;0.58;63.60;102585.84;4942507;28;20051;-50
2022/03/06 06:19:22;;;;;;;6.40;3.17;;;;;;;0.59;63.80;102587.50;4940502;29;20027;-52
2022/03/06 06:21:48;;;;;;;8.40;3.42;;;;;;;0.59;63.83;102582.22;4941238;28;20032;-52
2022/03/06 06:24:15;;;;;;;7.88;3.85;;;;;;;0.60;63.78;102590.00;4942099;28;20093;-51
2022/03/06 06:26:47;;;;;;;5.65;3.60;;;;;;;0.61;63.06;102598.75;4934798;29;20063;-51
2022/03/06 06:29:13;;;;;;;5.32;3.83;;;;;;;0.62;63.12;102595.13;4935546;28;20396;-51
2022/03/06 06:31:39;;;;;;;5.65;4.22;;;;;;;0.59;63.16;102604.16;4935473;29;20039;-55
2022/03/06 06:34:05;;;;;;;6.65;4.07;;;;;;;0.58;62.78;102604.31;4936857;29;20090;-49
2022/03/06 06:36:31;;;;;;;5.93;4.15;;;;;;;0.58;62.52;102605.13;4943884;28;20024;-54
2022/03/06 06:38:56;;;;;;;5.80;4.38;;;;;;;0.56;62.47;102609.72;4942639;28;20533;-52
2022/03/06 06:41:22;;;;;;;6.40;4.45;;;;;;;0.56;62.14;102601.81;4945277;28;20019;-49
2022/03/06 06:43:47;;;;;;;6.43;4.05;;;;;;;0.59;61.92;102609.44;4943734;28;20023;-50
2022/03/06 06:46:13;;;;;;;6.90;4.68;;;;;;;0.62;62.33;102597.78;4943655;28;20507;-49
2022/03/06 06:48:39;;;;;;;5.63;4.45;;;;;;;0.65;61.88;102600.13;4942199;28;20039;-52
2022/03/06 06:51:05;;;;;;;7.43;4.75;;;;;;;0.70;62.05;102599.72;4942136;28;20031;-51
2022/03/06 06:53:31;;;;;;;7.82;4.60;;;;;;;0.72;62.20;102600.41;4941003;28;20020;-53
2022/03/06 06:55:57;;;;;;;7.63;5.05;;;;;;;0.74;61.90;102599.31;4940881;28;20248;-51
2022/03/06 06:58:22;;;;;;;6.50;4.35;;;;;;;0.72;61.87;102603.03;4940228;28;20027;-52
2022/03/06 07:00:48;;;;;;;9.63;4.72;;;;;;;0.70;62.26;102603.19;4938571;28;20027;-49
2022/03/06 07:03:15;;;;;;;7.07;5.40;;;;;;;0.68;62.16;102606.94;4940905;29;20047;-51
2022/03/06 07:05:41;;;;;;;11.05;5.03;;;;;;;0.70;62.33;102602.34;4940855;29;20059;-51
2022/03/06 07:08:06;;;;;;;7.00;4.80;;;;;;;0.73;62.25;102608.22;4943353;29;20726;-51
2022/03/06 07:10:32;;;;;;;5.53;4.53;;;;;;;0.76;62.49;102605.28;4941741;28;20023;-53
2022/03/06 07:12:58;;;;;;;7.85;4.97;;;;;;;0.80;62.33;102608.47;4937649;29;20085;-52
2022/03/06 07:15:33;;;;;;;8.18;5.00;;;;;;;0.83;61.84;102606.41;4942310;28;20031;-52
2022/03/06 07:18:00;;;;;;;6.43;4.40;;;;;;;0.83;61.98;102605.56;4940708;28;20065;-52
2022/03/06 07:20:27;;;;;;;8.00;4.72;;;;;;;0.84;62.15;102613.34;4942055;29;20106;-51
2022/03/06 07:22:53;;;;;;;6.97;4.78;;;;;;;0.86;61.96;102616.66;4941717;28;20038;-51
2022/03/06 07:25:19;;;;;;;6.18;4.40;;;;;;;0.89;61.89;102616.38;4941854;28;20019;-53
2022/03/06 07:27:44;;;;;;;7.55;5.07;;;;;;;0.93;61.79;102613.50;4944990;28;20023;-52
2022/03/06 07:30:11;;;;;;;6.28;4.50;;;;;;;0.95;61.72;102614.19;4941366;28;20398;-53
2022/03/06 07:32:43;;;;;;;8.55;4.95;;;;;;;0.97;61.72;102620.16;4943009;29;20262;-51
2022/03/06 07:35:10;;;;;;;7.82;4.70;;;;;;;1.01;61.55;102625.00;4942535;28;20031;-53
2022/03/06 07:37:36;;;;;;;7.88;4.72;;;;;;;1.03;61.13;102627.50;4942399;28;20027;-51
2022/03/06 07:40:02;;;;;;;8.02;4.88;;;;;;;1.06;61.18;102621.94;4936797;29;20367;-50
2022/03/06 07:42:28;;;;;;;7.32;4.10;;;;;;;1.07;61.15;102634.16;4941329;29;20134;-51
2022/03/06 07:44:53;;;;;;;7.07;4.15;;;;;;;1.11;61.25;102630.28;4940921;28;20105;-51
2022/03/06 07:47:19;;;;;;;7.40;5.15;;;;;;;1.13;60.87;102628.34;4943443;29;20445;-49
2022/03/06 07:49:44;;;;;;;6.88;4.50;;;;;;;1.15;61.10;102629.03;4939638;28;20047;-52
2022/03/06 07:52:10;;;;;;;8.38;4.70;;;;;;;1.14;60.78;102630.84;4940705;28;20816;-50
2022/03/06 07:54:35;;;;;;;7.18;4.63;;;;;;;1.14;60.49;102632.66;4942017;29;20035;-50
2022/03/06 07:57:01;;;;;;;6.10;4.45;;;;;;;1.13;60.80;102636.28;4939066;28;20032;-52
2022/03/06 07:59:28;;;;;;;6.57;4.60;;;;;;;1.13;60.41;102633.63;4939198;28;20193;-52
2022/03/06 08:01:54;;;;;;;8.45;4.85;;;;;;;1.16;60.73;102639.44;4937387;29;20026;-52
2022/03/06 08:04:19;;;;;;;7.93;5.97;;;;;;;1.18;60.46;102641.94;4942161;28;20482;-51
2022/03/06 08:06:46;;;;;;;7.88;4.68;;;;;;;1.19;60.42;102646.25;4943391;28;20460;-53
2022/03/06 08:09:12;;;;;;;8.32;4.57;;;;;;;1.19;60.21;102640.97;4940247;28;20386;-54
2022/03/06 08:11:37;;;;;;;5.97;4.57;;;;;;;1.20;60.25;102642.66;4938500;28;20059;-52
2022/03/06 08:14:03;;;;;;;6.90;3.70;;;;;;;1.20;60.04;102640.84;4940575;28;20036;-51
2022/03/06 08:16:28;;;;;;;5.13;4.18;;;;;;;1.24;60.38;102645.84;4939868;28;20366;-54
2022/03/06 08:18:54;;;;;;;9.25;3.97;;;;;;;1.25;60.40;102650.97;4940847;28;20047;-53
2022/03/06 08:21:19;;;;;;;5.57;4.20;;;;;;;1.28;60.08;102641.97;4941843;28;20110;-54
2022/03/06 08:23:45;;;;;;;6.97;4.10;;;;;;;1.28;60.10;102645.44;4938550;29;20039;-52
2022/03/06 08:26:10;;;;;;;6.13;3.97;;;;;;;1.27;59.78;102643.75;4942662;28;20035;-52
2022/03/06 08:28:36;;;;;;;4.68;3.28;;;;;;;1.32;60.20;102645.97;4939344;28;20027;-50
2022/03/06 08:31:02;;;;;;;6.85;3.95;;;;;;;1.33;60.08;102645.00;4936573;28;20089;-49
2022/03/06 08:33:27;;;;;;;8.00;3.72;;;;;;;1.33;59.94;102637.91;4937292;28;20544;-52
2022/03/06 08:35:53;;;;;;;5.45;4.32;;;;;;;1.32;59.67;102636.25;4940587;29;20027;-50
2022/03/06 08:38:18;;;;;;;5.32;4.35;;;;;;;1.34;59.62;102641.38;4946504;28;20082;-54
2022/03/06 08:40:44;;;;;;;5.55;4.28;;;;;;;1.35;60.05;102641.25;4946076;28;20047;-49
2022/03/06 08:43:10;;;;;;;8.18;5.63;;;;;;;1.36;59.48;102634.97;4944813;28;20038;-49
2022/03/06 08:45:37;;;;;;;7.32;4.20;;;;;;;1.39;59.65;102639.16;4947182;28;20059;-52
2022/03/06 08:48:03;;;;;;;7.85;4.25;;;;;;;1.42;59.62;102638.84;4946143;28;20054;-50
2022/03/06 08:50:29;;;;;;;7.47;3.40;;;;;;;1.43;59.42;102641.34;4941364;28;20537;-52
2022/03/06 08:52:54;;;;;;;6.10;4.10;;;;;;;1.43;59.54;102638.72;4944439;29;20046;-51
2022/03/06 08:55:20;;;;;;;8.07;3.40;;;;;;;1.45;59.38;102639.44;4943517;29;20052;-51
2022/03/06 08:57:45;;;;;;;4.50;2.88;;;;;;;1.47;59.20;102637.47;4943776;29;20067;-53
2022/03/06 09:00:11;;;;;;;6.97;3.30;;;;;;;1.51;59.16;102638.03;4944062;28;20051;-49
2022/03/06 09:02:37;;;;;;;5.03;3.28;;;;;;;1.54;58.88;102643.00;4940764;29;20537;-51
2022/03/06 09:05:02;;;;;;;5.35;3.15;;;;;;;1.56;59.00;102642.88;4939465;28;20031;-49
2022/03/06 09:07:28;;;;;;;5.07;3.28;;;;;;;1.55;59.30;102639.41;4942114;28;20252;-49
2022/03/06 09:09:53;;;;;;;5.13;3.25;;;;;;;1.57;59.26;102647.19;4940486;28;20069;-53
2022/03/06 09:12:19;;;;;;;6.95;3.78;;;;;;;1.61;59.33;102645.91;4944239;28;20163;-50
2022/03/06 09:14:45;;;;;;;6.20;3.50;;;;;;;1.64;59.16;102643.84;4946785;28;20035;-54
2022/03/06 09:17:11;;;;;;;4.10;3.00;;;;;;;1.67;59.13;102648.00;4940578;29;21704;-51
2022/03/06 09:19:37;;;;;;;6.53;4.15;;;;;;;1.70;59.14;102647.72;4941049;28;20036;-50
2022/03/06 09:22:03;;;;;;;3.13;2.45;;;;;;;1.72;59.12;102646.59;4941738;28;20086;-49
2022/03/06 09:24:29;;;;;;;2.97;2.67;;;;;;;1.76;58.90;102644.47;4942705;29;20034;-52
2022/03/06 09:26:54;;;;;;;4.75;2.78;;;;;;;1.77;59.26;102643.50;4945649;29;20266;-50
2022/03/06 09:29:20;;;;;;;4.18;2.80;;;;;;;1.78;58.70;102645.16;4944645;28;20031;-53
2022/03/06 09:31:45;;;;;;;3.22;2.55;;;;;;;1.78;59.02;102640.72;4943431;28;20086;-51
2022/03/06 09:34:11;;;;;;;3.40;2.50;;;;;;;1.81;59.24;102645.75;4944188;28;20066;-51
2022/03/06 09:36:37;;;;;;;6.20;3.08;;;;;;;1.84;58.96;102649.06;4939477;28;20114;-52
2022/03/06 09:39:04;;;;;;;4.15;2.97;;;;;;;1.87;59.08;102646.97;4943954;28;20406;-49
2022/03/06 09:41:31;;;;;;;11.57;5.18;;;;;;;1.92;58.95;102652.63;4942963;28;20023;-49
2022/03/06 09:43:57;;;;;;;17.17;7.57;;;;;;;1.95;58.88;102647.06;4943548;29;20031;-54
2022/03/06 09:46:24;;;;;;;24.10;10.38;;;;;;;2.00;59.06;102651.94;4943130;28;20027;-53
2022/03/06 09:48:50;;;;;;;26.73;10.07;;;;;;;2.02;58.77;102642.88;4944355;28;20362;-51
2022/03/06 09:51:16;;;;;;;21.83;9.82;;;;;;;2.06;58.79;102644.25;4944181;28;20026;-51
2022/03/06 09:53:42;;;;;;;18.77;8.68;;;;;;;2.10;58.70;102645.59;4943171;28;20034;-53
2022/03/06 09:56:08;;;;;;;14.40;7.25;;;;;;;2.13;58.62;102645.31;4943054;28;20028;-51
2022/03/06 09:58:34;;;;;;;9.52;4.75;;;;;;;2.17;58.42;102648.53;4942173;29;20057;-53
2022/03/06 10:00:59;;;;;;;8.90;5.30;;;;;;;2.19;58.52;102656.31;4943462;28;20192;-48
2022/03/06 10:03:25;;;;;;;7.15;3.72;;;;;;;2.23;58.37;102653.22;4938964;29;20493;-48
2022/03/06 10:05:51;;;;;;;6.30;3.65;;;;;;;2.28;58.21;102650.13;4937964;29;20019;-48
2022/03/06 10:08:20;;;;;;;6.03;2.85;;;;;;;2.33;58.25;102642.56;4942073;29;20035;-50
2022/03/06 10:10:47;;;;;;;5.30;2.85;;;;;;;2.40;58.21;102635.72;4940665;28;20071;-48
2022/03/06 10:13:23;;;;;;;5.00;2.38;;;;;;;2.45;58.00;102641.41;4940359;28;20031;-49
2022/03/06 10:16:09;;;;;;;4.50;2.60;;;;;;;2.50;57.65;102641.78;4938760;28;20038;-49
2022/03/06 10:18:46;;;;;;;5.88;2.42;;;;;;;2.57;57.42;102637.56;4940919;29;20046;-49
2022/03/06 10:21:13;;;;;;;3.28;2.20;;;;;;;2.65;57.46;102640.28;4941001;28;20039;-49
2022/03/06 10:23:39;;;;;;;4.28;2.05;;;;;;;2.69;57.10;102633.75;4943806;28;20043;-49
2022/03/06 10:26:12;;;;;;;3.08;1.88;;;;;;;2.73;57.03;102632.44;4940674;28;20030;-49
2022/03/06 10:28:44;;;;;;;2.83;1.75;;;;;;;2.76;56.86;102633.13;4941526;28;20126;-48
2022/03/06 10:31:10;;;;;;;2.10;1.45;;;;;;;2.82;56.80;102635.16;4937471;28;20070;-48
2022/03/06 10:33:35;;;;;;;3.67;1.90;;;;;;;2.85;56.73;102637.50;4936528;29;20122;-50
2022/03/06 10:36:02;;;;;;;4.57;2.17;;;;;;;2.91;56.58;102634.28;4940918;28;20122;-48
2022/03/06 10:38:35;;;;;;;3.72;1.80;;;;;;;2.93;56.38;102637.59;4940569;28;20054;-49
2022/03/06 10:41:09;;;;;;;2.97;1.80;;;;;;;2.95;56.38;102640.91;4942755;29;20027;-49
2022/03/06 10:43:35;;;;;;;5.97;2.67;;;;;;;3.01;56.26;102637.66;4941435;29;20528;-47
2022/03/06 10:46:16;;;;;;;3.47;2.30;;;;;;;3.00;56.24;102636.81;4938188;29;20039;-49
2022/03/06 10:48:53;;;;;;;3.42;2.30;;;;;;;3.07;56.19;102637.06;4941748;29;20098;-48
2022/03/06 10:51:20;;;;;;;2.78;1.77;;;;;;;3.11;56.15;102640.22;4936735;28;20286;-49
2022/03/06 10:53:51;;;;;;;3.28;2.05;;;;;;;3.10;55.74;102639.41;4944027;28;20066;-48
2022/03/06 10:56:17;;;;;;;3.17;1.50;;;;;;;3.14;55.99;102637.28;4941014;28;20327;-48
2022/03/06 10:58:45;;;;;;;1.77;1.33;;;;;;;3.13;55.39;102633.78;4939966;29;20041;-50
2022/03/06 11:01:12;;;;;;;2.50;1.33;;;;;;;3.09;55.35;102635.09;4939645;28;20035;-48
2022/03/06 11:03:38;;;;;;;4.38;1.40;;;;;;;3.07;55.00;102631.78;4937670;29;20473;-48
2022/03/06 11:06:05;;;;;;;6.25;3.38;;;;;;;3.08;54.95;102635.25;4939042;28;20036;-48
2022/03/06 11:08:31;;;;;;;9.35;2.88;;;;;;;3.08;54.61;102624.66;4935030;29;20042;-49
2022/03/06 11:10:57;;;;;;;5.13;1.98;;;;;;;3.09;54.37;102626.31;4936723;29;20378;-47
2022/03/06 11:13:24;;;;;;;4.60;2.55;;;;;;;3.13;54.48;102628.50;4938948;28;20062;-47
2022/03/06 11:15:50;;;;;;;3.85;2.10;;;;;;;3.19;54.44;102625.22;4938430;28;20027;-50
2022/03/06 11:18:16;;;;;;;4.47;2.30;;;;;;;3.26;54.20;102618.34;4936236;28;20034;-48
2022/03/06 11:20:44;;;;;;;4.97;2.00;;;;;;;3.32;53.96;102612.41;4934532;29;20057;-49
2022/03/06 11:23:18;;;;;;;4.20;1.88;;;;;;;3.33;53.75;102615.91;4940154;29;20055;-48
2022/03/06 11:26:10;;;;;;;2.75;1.52;;;;;;;3.32;53.30;102611.59;4937804;29;20405;-49
2022/03/06 11:28:51;;;;;;;4.22;1.58;;;;;;;3.41;53.68;102612.47;4935184;28;20085;-48